Cottage Grove, Minnesota
Current Conditions -  °F | °C
As of 10:10 PM on Tuesday 27 Jan 2015 (Local Time) from KSGS Reporting Station
Overcast Overcast  
Wind Chill: 25°   Ceiling: 1400
Heat Index: 31°   Visibility: 10mi
Dew Point: 26°   Wind: 7mph
Humidity: 82%   Direction: 150°SSE
Pressure: 30.13"   Gusts: NA
Location:  44.83°N, 92.95°W
Report Text: KSGS 280410Z AUTO 15006KT 10SM OVC014 00/M03 A3013 RMK AO2 T10031031
Loading
Personal Weather Stations






























Interactive Weather Map New forecast layout! Learn more

10-Day Weather Forecast

Advertisements
Track Severe Weather on mobile